sensor_id;sensor_type;location;lat;lon;timestamp;P1;durP1;ratioP1;P2;durP2;ratioP2
68176;SDS011;56478;50.982;7.032;2023-06-14T00:01:45;5.22;;;4.82;;
68176;SDS011;56478;50.982;7.032;2023-06-14T00:04:11;5.00;;;4.50;;
68176;SDS011;56478;50.982;7.032;2023-06-14T00:06:38;5.63;;;5.13;;
68176;SDS011;56478;50.982;7.032;2023-06-14T00:09:03;6.43;;;4.65;;
68176;SDS011;56478;50.982;7.032;2023-06-14T00:11:30;7.20;;;4.78;;
68176;SDS011;56478;50.982;7.032;2023-06-14T00:13:56;5.40;;;4.90;;
68176;SDS011;56478;50.982;7.032;2023-06-14T00:16:22;5.85;;;4.85;;
68176;SDS011;56478;50.982;7.032;2023-06-14T00:18:48;5.43;;;4.70;;
68176;SDS011;56478;50.982;7.032;2023-06-14T00:21:13;6.03;;;5.05;;
68176;SDS011;56478;50.982;7.032;2023-06-14T00:23:39;5.55;;;5.03;;
68176;SDS011;56478;50.982;7.032;2023-06-14T00:26:05;5.63;;;5.00;;
68176;SDS011;56478;50.982;7.032;2023-06-14T00:28:30;5.60;;;4.85;;
68176;SDS011;56478;50.982;7.032;2023-06-14T00:30:56;5.10;;;4.70;;
68176;SDS011;56478;50.982;7.032;2023-06-14T00:33:21;7.50;;;5.15;;
68176;SDS011;56478;50.982;7.032;2023-06-14T00:35:47;5.47;;;4.97;;
68176;SDS011;56478;50.982;7.032;2023-06-14T00:38:13;5.97;;;5.10;;
68176;SDS011;56478;50.982;7.032;2023-06-14T00:40:39;5.63;;;5.10;;
68176;SDS011;56478;50.982;7.032;2023-06-14T00:43:04;7.93;;;5.38;;
68176;SDS011;56478;50.982;7.032;2023-06-14T00:45:31;7.95;;;4.78;;
68176;SDS011;56478;50.982;7.032;2023-06-14T00:48:01;6.05;;;5.30;;
68176;SDS011;56478;50.982;7.032;2023-06-14T00:50:27;5.68;;;4.93;;
68176;SDS011;56478;50.982;7.032;2023-06-14T00:52:55;5.82;;;5.20;;
68176;SDS011;56478;50.982;7.032;2023-06-14T00:55:21;6.78;;;5.05;;
68176;SDS011;56478;50.982;7.032;2023-06-14T00:57:47;6.05;;;4.90;;
68176;SDS011;56478;50.982;7.032;2023-06-14T01:00:14;6.00;;;5.18;;
68176;SDS011;56478;50.982;7.032;2023-06-14T01:02:40;5.72;;;4.93;;
68176;SDS011;56478;50.982;7.032;2023-06-14T01:05:06;5.40;;;4.90;;
68176;SDS011;56478;50.982;7.032;2023-06-14T01:13:15;6.68;;;5.00;;
68176;SDS011;56478;50.982;7.032;2023-06-14T01:15:46;6.80;;;5.30;;
68176;SDS011;56478;50.982;7.032;2023-06-14T01:18:12;6.07;;;5.47;;
68176;SDS011;56478;50.982;7.032;2023-06-14T01:20:44;5.80;;;5.20;;
68176;SDS011;56478;50.982;7.032;2023-06-14T01:23:14;6.07;;;5.35;;
68176;SDS011;56478;50.982;7.032;2023-06-14T01:25:41;7.10;;;5.38;;
68176;SDS011;56478;50.982;7.032;2023-06-14T01:28:09;5.85;;;5.18;;
68176;SDS011;56478;50.982;7.032;2023-06-14T01:30:37;6.88;;;5.72;;
68176;SDS011;56478;50.982;7.032;2023-06-14T01:33:04;6.93;;;5.72;;
68176;SDS011;56478;50.982;7.032;2023-06-14T01:35:31;6.75;;;5.45;;
68176;SDS011;56478;50.982;7.032;2023-06-14T01:37:56;7.97;;;5.57;;
68176;SDS011;56478;50.982;7.032;2023-06-14T01:40:23;6.07;;;5.50;;
68176;SDS011;56478;50.982;7.032;2023-06-14T01:42:49;5.82;;;5.25;;
68176;SDS011;56478;50.982;7.032;2023-06-14T01:45:15;5.90;;;5.30;;
68176;SDS011;56478;50.982;7.032;2023-06-14T01:47:42;6.53;;;5.47;;
68176;SDS011;56478;50.982;7.032;2023-06-14T01:50:10;6.00;;;5.40;;
68176;SDS011;56478;50.982;7.032;2023-06-14T01:52:36;6.20;;;5.60;;
68176;SDS011;56478;50.982;7.032;2023-06-14T01:55:03;6.00;;;5.40;;
68176;SDS011;56478;50.982;7.032;2023-06-14T01:57:30;6.00;;;5.45;;
68176;SDS011;56478;50.982;7.032;2023-06-14T01:59:56;6.70;;;5.28;;
68176;SDS011;56478;50.982;7.032;2023-06-14T02:02:22;6.65;;;5.30;;
68176;SDS011;56478;50.982;7.032;2023-06-14T02:04:47;8.88;;;5.53;;
68176;SDS011;56478;50.982;7.032;2023-06-14T02:07:13;6.28;;;5.53;;
68176;SDS011;56478;50.982;7.032;2023-06-14T02:09:40;7.07;;;5.70;;
68176;SDS011;56478;50.982;7.032;2023-06-14T02:12:06;5.68;;;5.18;;
68176;SDS011;56478;50.982;7.032;2023-06-14T02:14:31;6.43;;;5.30;;
68176;SDS011;56478;50.982;7.032;2023-06-14T02:16:57;6.75;;;5.30;;
68176;SDS011;56478;50.982;7.032;2023-06-14T02:19:23;6.10;;;5.43;;
68176;SDS011;56478;50.982;7.032;2023-06-14T02:21:49;6.22;;;5.60;;
68176;SDS011;56478;50.982;7.032;2023-06-14T02:24:15;6.30;;;5.20;;
68176;SDS011;56478;50.982;7.032;2023-06-14T02:26:41;6.22;;;5.63;;
68176;SDS011;56478;50.982;7.032;2023-06-14T02:29:07;7.90;;;5.43;;
68176;SDS011;56478;50.982;7.032;2023-06-14T02:31:37;6.53;;;5.50;;
68176;SDS011;56478;50.982;7.032;2023-06-14T02:34:03;8.73;;;5.30;;
68176;SDS011;56478;50.982;7.032;2023-06-14T02:36:29;9.35;;;5.30;;
68176;SDS011;56478;50.982;7.032;2023-06-14T02:38:55;8.48;;;5.60;;
68176;SDS011;56478;50.982;7.032;2023-06-14T02:41:25;5.50;;;5.00;;
68176;SDS011;56478;50.982;7.032;2023-06-14T02:43:51;5.90;;;5.30;;
68176;SDS011;56478;50.982;7.032;2023-06-14T02:46:17;7.15;;;5.20;;
68176;SDS011;56478;50.982;7.032;2023-06-14T02:48:43;6.10;;;5.50;;
68176;SDS011;56478;50.982;7.032;2023-06-14T02:51:08;5.93;;;5.43;;
68176;SDS011;56478;50.982;7.032;2023-06-14T02:53:35;6.18;;;5.57;;
68176;SDS011;56478;50.982;7.032;2023-06-14T02:56:01;6.28;;;5.35;;
68176;SDS011;56478;50.982;7.032;2023-06-14T02:58:29;5.93;;;4.93;;
68176;SDS011;56478;50.982;7.032;2023-06-14T03:00:54;5.90;;;5.35;;
68176;SDS011;56478;50.982;7.032;2023-06-14T03:03:20;5.80;;;5.20;;
68176;SDS011;56478;50.982;7.032;2023-06-14T03:05:47;7.57;;;5.20;;
68176;SDS011;56478;50.982;7.032;2023-06-14T03:08:15;9.77;;;5.30;;
68176;SDS011;56478;50.982;7.032;2023-06-14T03:10:44;5.97;;;5.47;;
68176;SDS011;56478;50.982;7.032;2023-06-14T03:13:12;6.30;;;5.55;;
68176;SDS011;56478;50.982;7.032;2023-06-14T03:15:38;6.30;;;5.20;;
68176;SDS011;56478;50.982;7.032;2023-06-14T03:18:07;5.80;;;5.32;;
68176;SDS011;56478;50.982;7.032;2023-06-14T03:20:34;5.93;;;5.00;;
68176;SDS011;56478;50.982;7.032;2023-06-14T03:23:03;6.22;;;5.25;;
68176;SDS011;56478;50.982;7.032;2023-06-14T03:25:30;5.78;;;5.28;;
68176;SDS011;56478;50.982;7.032;2023-06-14T03:27:56;5.57;;;5.07;;
68176;SDS011;56478;50.982;7.032;2023-06-14T03:30:21;7.03;;;5.53;;
68176;SDS011;56478;50.982;7.032;2023-06-14T03:32:47;8.65;;;5.55;;
68176;SDS011;56478;50.982;7.032;2023-06-14T03:35:12;6.57;;;5.40;;
68176;SDS011;56478;50.982;7.032;2023-06-14T03:37:45;6.10;;;5.45;;
68176;SDS011;56478;50.982;7.032;2023-06-14T03:40:12;7.70;;;5.53;;
68176;SDS011;56478;50.982;7.032;2023-06-14T03:42:39;7.57;;;5.63;;
68176;SDS011;56478;50.982;7.032;2023-06-14T03:45:05;8.88;;;5.93;;
68176;SDS011;56478;50.982;7.032;2023-06-14T03:47:32;7.90;;;6.20;;
68176;SDS011;56478;50.982;7.032;2023-06-14T03:49:57;8.02;;;6.20;;
68176;SDS011;56478;50.982;7.032;2023-06-14T03:52:23;8.27;;;6.28;;
68176;SDS011;56478;50.982;7.032;2023-06-14T03:54:49;6.57;;;5.97;;
68176;SDS011;56478;50.982;7.032;2023-06-14T03:57:15;6.93;;;5.93;;
68176;SDS011;56478;50.982;7.032;2023-06-14T03:59:40;5.93;;;5.38;;
68176;SDS011;56478;50.982;7.032;2023-06-14T04:02:06;5.97;;;5.38;;
68176;SDS011;56478;50.982;7.032;2023-06-14T04:04:34;6.97;;;5.50;;
68176;SDS011;56478;50.982;7.032;2023-06-14T04:07:00;6.65;;;5.50;;
68176;SDS011;56478;50.982;7.032;2023-06-14T04:09:28;15.65;;;5.82;;
68176;SDS011;56478;50.982;7.032;2023-06-14T04:11:54;6.00;;;5.50;;
68176;SDS011;56478;50.982;7.032;2023-06-14T04:14:21;6.20;;;5.60;;
68176;SDS011;56478;50.982;7.032;2023-06-14T04:16:47;8.25;;;5.97;;
68176;SDS011;56478;50.982;7.032;2023-06-14T04:19:13;8.00;;;5.57;;
68176;SDS011;56478;50.982;7.032;2023-06-14T04:21:39;5.93;;;5.43;;
68176;SDS011;56478;50.982;7.032;2023-06-14T04:24:05;5.90;;;5.13;;
68176;SDS011;56478;50.982;7.032;2023-06-14T04:26:32;5.70;;;5.13;;
68176;SDS011;56478;50.982;7.032;2023-06-14T04:28:59;6.88;;;5.32;;
68176;SDS011;56478;50.982;7.032;2023-06-14T04:31:28;5.88;;;5.28;;
68176;SDS011;56478;50.982;7.032;2023-06-14T04:33:54;5.93;;;5.22;;
68176;SDS011;56478;50.982;7.032;2023-06-14T04:36:24;8.70;;;5.82;;
68176;SDS011;56478;50.982;7.032;2023-06-14T04:38:53;5.82;;;5.30;;
68176;SDS011;56478;50.982;7.032;2023-06-14T04:41:21;6.60;;;5.03;;
68176;SDS011;56478;50.982;7.032;2023-06-14T04:46:14;7.50;;;5.18;;
68176;SDS011;56478;50.982;7.032;2023-06-14T04:48:40;5.38;;;4.90;;
68176;SDS011;56478;50.982;7.032;2023-06-14T04:51:10;7.00;;;4.82;;
68176;SDS011;56478;50.982;7.032;2023-06-14T04:53:36;7.18;;;5.07;;
68176;SDS011;56478;50.982;7.032;2023-06-14T04:56:02;21.45;;;5.68;;
68176;SDS011;56478;50.982;7.032;2023-06-14T04:58:29;30.05;;;5.60;;
68176;SDS011;56478;50.982;7.032;2023-06-14T05:00:55;14.10;;;5.20;;
68176;SDS011;56478;50.982;7.032;2023-06-14T05:03:24;19.65;;;5.38;;
68176;SDS011;56478;50.982;7.032;2023-06-14T05:05:50;14.77;;;5.50;;
68176;SDS011;56478;50.982;7.032;2023-06-14T05:08:18;35.53;;;6.15;;
68176;SDS011;56478;50.982;7.032;2023-06-14T05:10:45;69.70;;;8.20;;
68176;SDS011;56478;50.982;7.032;2023-06-14T05:13:10;42.70;;;7.03;;
68176;SDS011;56478;50.982;7.032;2023-06-14T05:15:36;43.20;;;6.45;;
68176;SDS011;56478;50.982;7.032;2023-06-14T05:18:02;61.63;;;6.88;;
68176;SDS011;56478;50.982;7.032;2023-06-14T05:20:27;27.33;;;5.10;;
68176;SDS011;56478;50.982;7.032;2023-06-14T05:22:53;8.63;;;4.70;;
68176;SDS011;56478;50.982;7.032;2023-06-14T05:25:19;10.82;;;4.38;;
68176;SDS011;56478;50.982;7.032;2023-06-14T05:27:46;8.27;;;4.50;;
68176;SDS011;56478;50.982;7.032;2023-06-14T05:30:12;10.77;;;4.20;;
68176;SDS011;56478;50.982;7.032;2023-06-14T05:32:38;5.22;;;4.15;;
68176;SDS011;56478;50.982;7.032;2023-06-14T05:35:04;4.78;;;4.38;;
68176;SDS011;56478;50.982;7.032;2023-06-14T05:37:31;5.13;;;4.25;;
68176;SDS011;56478;50.982;7.032;2023-06-14T05:39:56;7.75;;;4.10;;
68176;SDS011;56478;50.982;7.032;2023-06-14T05:42:22;6.43;;;4.10;;
68176;SDS011;56478;50.982;7.032;2023-06-14T05:44:48;7.57;;;4.20;;
68176;SDS011;56478;50.982;7.032;2023-06-14T05:47:13;8.40;;;4.00;;
68176;SDS011;56478;50.982;7.032;2023-06-14T05:49:39;4.22;;;3.83;;
68176;SDS011;56478;50.982;7.032;2023-06-14T05:52:04;6.80;;;4.10;;
68176;SDS011;56478;50.982;7.032;2023-06-14T05:54:30;4.47;;;3.53;;
68176;SDS011;56478;50.982;7.032;2023-06-14T05:56:56;4.15;;;3.75;;
68176;SDS011;56478;50.982;7.032;2023-06-14T05:59:26;3.90;;;3.60;;
68176;SDS011;56478;50.982;7.032;2023-06-14T06:01:54;7.70;;;3.58;;
68176;SDS011;56478;50.982;7.032;2023-06-14T06:04:20;4.28;;;3.67;;
68176;SDS011;56478;50.982;7.032;2023-06-14T06:06:46;4.55;;;3.70;;
68176;SDS011;56478;50.982;7.032;2023-06-14T06:09:12;4.00;;;3.70;;
68176;SDS011;56478;50.982;7.032;2023-06-14T06:11:39;4.43;;;3.75;;
68176;SDS011;56478;50.982;7.032;2023-06-14T06:14:06;6.28;;;3.70;;
68176;SDS011;56478;50.982;7.032;2023-06-14T06:16:32;5.60;;;3.88;;
68176;SDS011;56478;50.982;7.032;2023-06-14T06:18:58;4.28;;;3.88;;
68176;SDS011;56478;50.982;7.032;2023-06-14T06:21:24;8.98;;;3.30;;
68176;SDS011;56478;50.982;7.032;2023-06-14T06:23:50;8.30;;;3.70;;
68176;SDS011;56478;50.982;7.032;2023-06-14T06:26:16;7.65;;;3.60;;
68176;SDS011;56478;50.982;7.032;2023-06-14T06:28:41;5.50;;;3.80;;
68176;SDS011;56478;50.982;7.032;2023-06-14T06:31:07;5.68;;;3.78;;
68176;SDS011;56478;50.982;7.032;2023-06-14T06:33:32;4.30;;;3.22;;
68176;SDS011;56478;50.982;7.032;2023-06-14T06:35:58;4.93;;;3.13;;
68176;SDS011;56478;50.982;7.032;2023-06-14T06:38:23;3.53;;;3.20;;
68176;SDS011;56478;50.982;7.032;2023-06-14T06:40:49;5.00;;;3.60;;
68176;SDS011;56478;50.982;7.032;2023-06-14T06:43:14;6.70;;;3.20;;
68176;SDS011;56478;50.982;7.032;2023-06-14T06:45:42;4.53;;;3.45;;
68176;SDS011;56478;50.982;7.032;2023-06-14T06:48:08;5.10;;;2.95;;
68176;SDS011;56478;50.982;7.032;2023-06-14T06:50:35;10.05;;;3.35;;
68176;SDS011;56478;50.982;7.032;2023-06-14T06:53:01;4.15;;;3.08;;
68176;SDS011;56478;50.982;7.032;2023-06-14T06:55:27;6.78;;;2.97;;
68176;SDS011;56478;50.982;7.032;2023-06-14T06:57:53;4.07;;;3.30;;
68176;SDS011;56478;50.982;7.032;2023-06-14T07:00:19;3.35;;;3.05;;
68176;SDS011;56478;50.982;7.032;2023-06-14T07:02:45;3.72;;;2.90;;
68176;SDS011;56478;50.982;7.032;2023-06-14T07:05:11;4.82;;;2.80;;
68176;SDS011;56478;50.982;7.032;2023-06-14T07:07:36;2.47;;;2.28;;
68176;SDS011;56478;50.982;7.032;2023-06-14T07:10:03;3.00;;;2.60;;
68176;SDS011;56478;50.982;7.032;2023-06-14T07:12:30;5.18;;;2.50;;
68176;SDS011;56478;50.982;7.032;2023-06-14T07:14:58;2.60;;;2.40;;
68176;SDS011;56478;50.982;7.032;2023-06-14T07:17:24;3.30;;;2.60;;
68176;SDS011;56478;50.982;7.032;2023-06-14T07:19:50;2.80;;;2.30;;
68176;SDS011;56478;50.982;7.032;2023-06-14T07:22:16;6.10;;;2.30;;
68176;SDS011;56478;50.982;7.032;2023-06-14T07:24:42;4.88;;;2.63;;
68176;SDS011;56478;50.982;7.032;2023-06-14T07:27:08;4.78;;;2.58;;
68176;SDS011;56478;50.982;7.032;2023-06-14T07:29:34;2.38;;;2.10;;
68176;SDS011;56478;50.982;7.032;2023-06-14T07:31:59;4.40;;;2.10;;
68176;SDS011;56478;50.982;7.032;2023-06-14T07:34:25;3.63;;;2.10;;
68176;SDS011;56478;50.982;7.032;2023-06-14T07:36:51;2.67;;;1.80;;
68176;SDS011;56478;50.982;7.032;2023-06-14T07:39:16;3.47;;;1.90;;
68176;SDS011;56478;50.982;7.032;2023-06-14T07:41:42;3.07;;;1.90;;
68176;SDS011;56478;50.982;7.032;2023-06-14T07:44:07;2.80;;;2.10;;
68176;SDS011;56478;50.982;7.032;2023-06-14T07:46:33;1.90;;;1.80;;
68176;SDS011;56478;50.982;7.032;2023-06-14T07:48:59;2.50;;;1.88;;
68176;SDS011;56478;50.982;7.032;2023-06-14T07:51:25;1.95;;;1.85;;
68176;SDS011;56478;50.982;7.032;2023-06-14T07:53:51;2.80;;;2.00;;
68176;SDS011;56478;50.982;7.032;2023-06-14T07:56:16;1.80;;;1.70;;
68176;SDS011;56478;50.982;7.032;2023-06-14T07:58:42;5.30;;;1.90;;
68176;SDS011;56478;50.982;7.032;2023-06-14T08:01:08;3.57;;;2.10;;
68176;SDS011;56478;50.982;7.032;2023-06-14T08:03:34;8.43;;;1.98;;
68176;SDS011;56478;50.982;7.032;2023-06-14T08:05:59;5.37;;;1.90;;
68176;SDS011;56478;50.982;7.032;2023-06-14T08:08:26;9.68;;;2.10;;
68176;SDS011;56478;50.982;7.032;2023-06-14T08:10:51;8.77;;;2.35;;
68176;SDS011;56478;50.982;7.032;2023-06-14T08:13:17;2.00;;;1.90;;
68176;SDS011;56478;50.982;7.032;2023-06-14T08:15:43;5.37;;;1.90;;
68176;SDS011;56478;50.982;7.032;2023-06-14T08:18:09;2.87;;;2.10;;
68176;SDS011;56478;50.982;7.032;2023-06-14T08:20:35;2.30;;;2.10;;
68176;SDS011;56478;50.982;7.032;2023-06-14T08:23:02;3.87;;;1.83;;
68176;SDS011;56478;50.982;7.032;2023-06-14T08:25:29;4.57;;;1.98;;
68176;SDS011;56478;50.982;7.032;2023-06-14T08:27:55;4.70;;;1.90;;
68176;SDS011;56478;50.982;7.032;2023-06-14T08:30:21;2.07;;;1.93;;
68176;SDS011;56478;50.982;7.032;2023-06-14T08:32:47;2.00;;;1.90;;
68176;SDS011;56478;50.982;7.032;2023-06-14T08:35:12;9.23;;;2.00;;
68176;SDS011;56478;50.982;7.032;2023-06-14T08:37:40;3.50;;;1.97;;
68176;SDS011;56478;50.982;7.032;2023-06-14T08:40:12;2.22;;;1.80;;
68176;SDS011;56478;50.982;7.032;2023-06-14T08:42:52;3.30;;;2.00;;
68176;SDS011;56478;50.982;7.032;2023-06-14T08:45:22;2.00;;;1.90;;
68176;SDS011;56478;50.982;7.032;2023-06-14T08:47:50;1.80;;;1.70;;
68176;SDS011;56478;50.982;7.032;2023-06-14T08:50:22;3.08;;;2.22;;
68176;SDS011;56478;50.982;7.032;2023-06-14T08:52:54;2.05;;;1.95;;
68176;SDS011;56478;50.982;7.032;2023-06-14T08:55:22;4.63;;;2.10;;
68176;SDS011;56478;50.982;7.032;2023-06-14T08:57:52;2.15;;;2.00;;
68176;SDS011;56478;50.982;7.032;2023-06-14T09:00:19;2.20;;;2.00;;
68176;SDS011;56478;50.982;7.032;2023-06-14T09:02:46;2.10;;;2.00;;
68176;SDS011;56478;50.982;7.032;2023-06-14T09:05:12;2.55;;;2.08;;
68176;SDS011;56478;50.982;7.032;2023-06-14T09:07:41;1.92;;;1.83;;
68176;SDS011;56478;50.982;7.032;2023-06-14T09:10:11;7.95;;;2.30;;
68176;SDS011;56478;50.982;7.032;2023-06-14T09:12:38;5.13;;;2.13;;
68176;SDS011;56478;50.982;7.032;2023-06-14T09:15:07;3.70;;;2.20;;
68176;SDS011;56478;50.982;7.032;2023-06-14T09:17:34;3.80;;;2.10;;
68176;SDS011;56478;50.982;7.032;2023-06-14T09:20:04;2.10;;;2.00;;
68176;SDS011;56478;50.982;7.032;2023-06-14T09:22:34;2.08;;;1.88;;
68176;SDS011;56478;50.982;7.032;2023-06-14T09:25:00;2.38;;;2.00;;
68176;SDS011;56478;50.982;7.032;2023-06-14T09:27:26;3.83;;;2.03;;
68176;SDS011;56478;50.982;7.032;2023-06-14T09:29:52;2.38;;;2.00;;
68176;SDS011;56478;50.982;7.032;2023-06-14T09:32:18;4.30;;;1.90;;
68176;SDS011;56478;50.982;7.032;2023-06-14T09:34:44;2.37;;;1.80;;
68176;SDS011;56478;50.982;7.032;2023-06-14T09:37:10;3.55;;;2.00;;
68176;SDS011;56478;50.982;7.032;2023-06-14T09:39:43;3.80;;;2.00;;
68176;SDS011;56478;50.982;7.032;2023-06-14T09:42:18;2.17;;;1.90;;
68176;SDS011;56478;50.982;7.032;2023-06-14T09:44:48;2.97;;;2.00;;
68176;SDS011;56478;50.982;7.032;2023-06-14T09:47:14;2.50;;;1.95;;
68176;SDS011;56478;50.982;7.032;2023-06-14T09:52:07;10.90;;;2.20;;
68176;SDS011;56478;50.982;7.032;2023-06-14T09:54:39;3.72;;;1.80;;
68176;SDS011;56478;50.982;7.032;2023-06-14T09:57:11;3.85;;;2.00;;
68176;SDS011;56478;50.982;7.032;2023-06-14T09:59:42;3.33;;;2.00;;
68176;SDS011;56478;50.982;7.032;2023-06-14T10:02:15;16.73;;;2.38;;
68176;SDS011;56478;50.982;7.032;2023-06-14T10:04:58;9.60;;;2.10;;
68176;SDS011;56478;50.982;7.032;2023-06-14T10:07:32;3.25;;;2.00;;
68176;SDS011;56478;50.982;7.032;2023-06-14T10:10:00;3.53;;;2.00;;
68176;SDS011;56478;50.982;7.032;2023-06-14T10:12:27;3.42;;;1.83;;
68176;SDS011;56478;50.982;7.032;2023-06-14T10:14:52;4.03;;;1.83;;
68176;SDS011;56478;50.982;7.032;2023-06-14T10:19:54;4.15;;;1.83;;
68176;SDS011;56478;50.982;7.032;2023-06-14T10:22:32;1.90;;;1.80;;
68176;SDS011;56478;50.982;7.032;2023-06-14T10:25:05;3.15;;;1.83;;
68176;SDS011;56478;50.982;7.032;2023-06-14T10:27:32;3.22;;;2.10;;
68176;SDS011;56478;50.982;7.032;2023-06-14T10:32:27;7.28;;;1.80;;
68176;SDS011;56478;50.982;7.032;2023-06-14T10:34:54;2.33;;;1.73;;
68176;SDS011;56478;50.982;7.032;2023-06-14T10:37:21;3.85;;;2.10;;
68176;SDS011;56478;50.982;7.032;2023-06-14T10:39:47;11.27;;;2.20;;
68176;SDS011;56478;50.982;7.032;2023-06-14T10:42:13;8.20;;;2.10;;
68176;SDS011;56478;50.982;7.032;2023-06-14T10:44:40;7.40;;;1.98;;
68176;SDS011;56478;50.982;7.032;2023-06-14T10:47:31;8.77;;;1.88;;
68176;SDS011;56478;50.982;7.032;2023-06-14T10:52:33;2.17;;;2.07;;
68176;SDS011;56478;50.982;7.032;2023-06-14T10:57:49;2.10;;;1.95;;
68176;SDS011;56478;50.982;7.032;2023-06-14T11:00:23;3.45;;;2.00;;
68176;SDS011;56478;50.982;7.032;2023-06-14T11:05:56;2.95;;;1.90;;
68176;SDS011;56478;50.982;7.032;2023-06-14T11:11:09;6.70;;;2.10;;
68176;SDS011;56478;50.982;7.032;2023-06-14T11:13:37;5.93;;;1.95;;
68176;SDS011;56478;50.982;7.032;2023-06-14T11:16:14;4.35;;;1.98;;
68176;SDS011;56478;50.982;7.032;2023-06-14T11:18:42;5.75;;;2.03;;
68176;SDS011;56478;50.982;7.032;2023-06-14T11:21:10;6.95;;;2.33;;
68176;SDS011;56478;50.982;7.032;2023-06-14T11:23:36;12.15;;;7.28;;
68176;SDS011;56478;50.982;7.032;2023-06-14T11:26:02;44.80;;;31.00;;
68176;SDS011;56478;50.982;7.032;2023-06-14T11:28:39;4.10;;;2.35;;
68176;SDS011;56478;50.982;7.032;2023-06-14T11:31:05;2.20;;;1.90;;
68176;SDS011;56478;50.982;7.032;2023-06-14T11:33:31;5.50;;;2.60;;
68176;SDS011;56478;50.982;7.032;2023-06-14T11:35:57;12.07;;;4.38;;
68176;SDS011;56478;50.982;7.032;2023-06-14T11:38:23;3.45;;;1.83;;
68176;SDS011;56478;50.982;7.032;2023-06-14T11:40:48;3.65;;;2.75;;
68176;SDS011;56478;50.982;7.032;2023-06-14T11:43:14;11.65;;;5.50;;
68176;SDS011;56478;50.982;7.032;2023-06-14T11:45:40;5.88;;;2.13;;
68176;SDS011;56478;50.982;7.032;2023-06-14T11:48:06;4.55;;;1.92;;
68176;SDS011;56478;50.982;7.032;2023-06-14T11:50:31;2.25;;;1.80;;
68176;SDS011;56478;50.982;7.032;2023-06-14T11:53:01;1.95;;;1.80;;
68176;SDS011;56478;50.982;7.032;2023-06-14T11:55:41;6.25;;;1.80;;
68176;SDS011;56478;50.982;7.032;2023-06-14T11:58:10;3.40;;;1.95;;
68176;SDS011;56478;50.982;7.032;2023-06-14T12:00:35;2.25;;;1.75;;
68176;SDS011;56478;50.982;7.032;2023-06-14T12:03:02;6.97;;;1.98;;
68176;SDS011;56478;50.982;7.032;2023-06-14T12:05:28;8.77;;;2.00;;
68176;SDS011;56478;50.982;7.032;2023-06-14T12:08:00;1.70;;;1.60;;
68176;SDS011;56478;50.982;7.032;2023-06-14T12:10:29;1.92;;;1.70;;
68176;SDS011;56478;50.982;7.032;2023-06-14T12:12:58;1.67;;;1.58;;
68176;SDS011;56478;50.982;7.032;2023-06-14T12:15:24;1.90;;;1.80;;
68176;SDS011;56478;50.982;7.032;2023-06-14T12:17:53;9.45;;;2.05;;
68176;SDS011;56478;50.982;7.032;2023-06-14T12:20:19;1.90;;;1.80;;
68176;SDS011;56478;50.982;7.032;2023-06-14T12:25:24;2.70;;;1.70;;
68176;SDS011;56478;50.982;7.032;2023-06-14T12:28:06;3.60;;;1.77;;
68176;SDS011;56478;50.982;7.032;2023-06-14T12:30:33;3.40;;;1.70;;
68176;SDS011;56478;50.982;7.032;2023-06-14T12:33:01;6.68;;;1.90;;
68176;SDS011;56478;50.982;7.032;2023-06-14T12:37:52;6.60;;;2.00;;
68176;SDS011;56478;50.982;7.032;2023-06-14T12:40:18;2.28;;;1.67;;
68176;SDS011;56478;50.982;7.032;2023-06-14T12:42:44;6.50;;;2.05;;
68176;SDS011;56478;50.982;7.032;2023-06-14T12:45:12;2.00;;;1.80;;
68176;SDS011;56478;50.982;7.032;2023-06-14T12:47:38;1.88;;;1.70;;
68176;SDS011;56478;50.982;7.032;2023-06-14T12:50:04;1.60;;;1.50;;
68176;SDS011;56478;50.982;7.032;2023-06-14T12:52:30;5.07;;;1.60;;
68176;SDS011;56478;50.982;7.032;2023-06-14T12:54:56;1.92;;;1.80;;
68176;SDS011;56478;50.982;7.032;2023-06-14T12:57:23;7.00;;;1.80;;
68176;SDS011;56478;50.982;7.032;2023-06-14T12:59:49;5.78;;;1.83;;
68176;SDS011;56478;50.982;7.032;2023-06-14T13:02:15;4.32;;;1.80;;
68176;SDS011;56478;50.982;7.032;2023-06-14T13:04:42;3.53;;;1.95;;
68176;SDS011;56478;50.982;7.032;2023-06-14T13:07:08;4.22;;;1.80;;
68176;SDS011;56478;50.982;7.032;2023-06-14T13:09:35;2.33;;;1.70;;
68176;SDS011;56478;50.982;7.032;2023-06-14T13:12:01;4.88;;;2.00;;
68176;SDS011;56478;50.982;7.032;2023-06-14T13:14:27;3.13;;;1.77;;
68176;SDS011;56478;50.982;7.032;2023-06-14T13:16:53;1.90;;;1.80;;
68176;SDS011;56478;50.982;7.032;2023-06-14T13:19:18;4.05;;;1.90;;
68176;SDS011;56478;50.982;7.032;2023-06-14T13:21:44;4.20;;;1.70;;
68176;SDS011;56478;50.982;7.032;2023-06-14T13:24:09;2.90;;;1.60;;
68176;SDS011;56478;50.982;7.032;2023-06-14T13:26:35;1.70;;;1.60;;
68176;SDS011;56478;50.982;7.032;2023-06-14T13:29:00;4.53;;;1.90;;
68176;SDS011;56478;50.982;7.032;2023-06-14T13:31:26;4.15;;;1.90;;
68176;SDS011;56478;50.982;7.032;2023-06-14T13:33:51;2.58;;;2.00;;
68176;SDS011;56478;50.982;7.032;2023-06-14T13:36:17;2.10;;;1.90;;
68176;SDS011;56478;50.982;7.032;2023-06-14T13:38:42;3.25;;;1.95;;
68176;SDS011;56478;50.982;7.032;2023-06-14T13:41:08;2.38;;;2.00;;
68176;SDS011;56478;50.982;7.032;2023-06-14T13:43:34;2.10;;;2.00;;
68176;SDS011;56478;50.982;7.032;2023-06-14T13:45:59;2.42;;;2.00;;
68176;SDS011;56478;50.982;7.032;2023-06-14T13:48:25;4.45;;;2.15;;
68176;SDS011;56478;50.982;7.032;2023-06-14T13:50:51;2.72;;;2.10;;
68176;SDS011;56478;50.982;7.032;2023-06-14T13:53:16;6.22;;;2.00;;
68176;SDS011;56478;50.982;7.032;2023-06-14T13:55:42;2.63;;;2.00;;
68176;SDS011;56478;50.982;7.032;2023-06-14T13:58:08;2.05;;;1.95;;
68176;SDS011;56478;50.982;7.032;2023-06-14T14:00:34;3.85;;;2.10;;
68176;SDS011;56478;50.982;7.032;2023-06-14T14:03:02;2.72;;;2.10;;
68176;SDS011;56478;50.982;7.032;2023-06-14T14:05:28;2.08;;;1.98;;
68176;SDS011;56478;50.982;7.032;2023-06-14T14:07:55;2.38;;;2.10;;
68176;SDS011;56478;50.982;7.032;2023-06-14T14:10:22;2.13;;;2.00;;
68176;SDS011;56478;50.982;7.032;2023-06-14T14:12:50;3.83;;;2.20;;
68176;SDS011;56478;50.982;7.032;2023-06-14T14:15:16;2.75;;;2.10;;
68176;SDS011;56478;50.982;7.032;2023-06-14T14:17:42;2.65;;;2.10;;
68176;SDS011;56478;50.982;7.032;2023-06-14T14:20:08;3.47;;;2.17;;
68176;SDS011;56478;50.982;7.032;2023-06-14T14:22:34;2.00;;;1.90;;
68176;SDS011;56478;50.982;7.032;2023-06-14T14:24:59;4.13;;;2.20;;
68176;SDS011;56478;50.982;7.032;2023-06-14T14:27:25;2.00;;;1.90;;
68176;SDS011;56478;50.982;7.032;2023-06-14T14:29:51;2.35;;;2.00;;
68176;SDS011;56478;50.982;7.032;2023-06-14T14:32:16;2.90;;;1.98;;
68176;SDS011;56478;50.982;7.032;2023-06-14T14:34:42;2.00;;;1.80;;
68176;SDS011;56478;50.982;7.032;2023-06-14T14:37:07;2.10;;;2.00;;
68176;SDS011;56478;50.982;7.032;2023-06-14T14:39:33;2.17;;;2.08;;
68176;SDS011;56478;50.982;7.032;2023-06-14T14:41:59;4.18;;;2.13;;
68176;SDS011;56478;50.982;7.032;2023-06-14T14:44:25;2.13;;;2.03;;
68176;SDS011;56478;50.982;7.032;2023-06-14T14:46:51;2.95;;;2.00;;
68176;SDS011;56478;50.982;7.032;2023-06-14T14:49:16;3.88;;;2.15;;
68176;SDS011;56478;50.982;7.032;2023-06-14T14:51:42;2.05;;;1.95;;
68176;SDS011;56478;50.982;7.032;2023-06-14T14:54:07;4.43;;;2.22;;
68176;SDS011;56478;50.982;7.032;2023-06-14T14:56:33;2.25;;;2.10;;
68176;SDS011;56478;50.982;7.032;2023-06-14T14:59:00;2.55;;;2.05;;
68176;SDS011;56478;50.982;7.032;2023-06-14T15:01:26;3.90;;;2.10;;
68176;SDS011;56478;50.982;7.032;2023-06-14T15:03:51;2.13;;;2.00;;
68176;SDS011;56478;50.982;7.032;2023-06-14T15:06:17;3.03;;;2.20;;
68176;SDS011;56478;50.982;7.032;2023-06-14T15:08:43;2.35;;;2.10;;
68176;SDS011;56478;50.982;7.032;2023-06-14T15:11:09;2.13;;;1.95;;
68176;SDS011;56478;50.982;7.032;2023-06-14T15:13:34;2.30;;;2.20;;
68176;SDS011;56478;50.982;7.032;2023-06-14T15:16:00;3.15;;;2.03;;
68176;SDS011;56478;50.982;7.032;2023-06-14T15:18:26;3.63;;;2.17;;